Impacts TAF Board INFO
FOR SITUATIONAL AWARENESS. NOT TO BE USED FOR FLIGHT PLANNING PURPOSES.
IDs:

KEWR - Newark Intl, NJ, US

Issued at 2321 UTC 23 Feb 2018
Updated at 0012 UTC 24 Feb 2018
Potential Impact None Slight Moderate High
Time<<24/13Z 24/14Z 24/15Z 24/16Z 24/17Z 24/18Z 24/19Z 24/20Z 24/21Z 24/22Z 24/23Z 25/00Z 25/01Z>>
Type PRVL PRVL PRVL PRVL PRVL PRVL PRVL PRVL PRVL PRVL PRVL PRVL PRVL
VIS >6 >6 >6 >6 >6 >6 >6 5 5 5 5 5 5
CIG 80 80 80 80 80 80 80 25 25 25 25 25 25
Cover OVC OVC OVC OVC OVC OVC OVC OVC OVC OVC OVC OVC OVC
FltCat VFR VFR VFR VFR VFR VFR VFR MVFR MVFR MVFR MVFR MVFR MVFR
WX -- -- -- -- -- -- -- -RA BR -RA BR -RA BR -RA BR -RA BR -RA BR
WDir 330 330 330 330 350 350 350 330 330 330 330 330 330
WSpd 6 6 6 6 5 5 5 4 4 4 4 4 4
WGst -- -- -- -- -- -- -- -- -- -- -- -- --

Raw TAF
KEWR 232321Z 2400/2506 11004KT 1 1/2SM -RA BR OVC005
  FM240100 22004KT 2SM -RA BR OVC005 WS020/27035KT
  FM240600 25005KT P6SM OVC010
  FM241300 33006KT P6SM FEW020 OVC080
  FM241700 35005KT P6SM OVC080
  FM242000 33004KT 5SM -RA BR BKN025 OVC050
  FM250200 05004KT 4SM -DZ BR BKN015 OVC050


METAR Board
Radar Display
Forecast Discussion

FOR SITUATIONAL AWARENESS. NOT TO BE USED FOR FLIGHT PLANNING PURPOSES.